Kezdőlap
METAR-TAF:

METAR-TAF

Repülőterek :

Gibraltár, Gibraltár

Gibraltári repülőtér

földrajzi szélesség: 36-09N, földrajzi hosszúság: 005-21W, magasság: 5 m

Jelenlegi meteorológiai megfigyelések

A jelentés 51 perccel ezelõtt készült, 23:50 UTC
Északnyugati szél 4 kt
Hőmérséklet 18°C
Páratartalom 77%
Légköri nyomás 1012 hPa
Látótávolság 10 km, vagy több

METAR: LXGB 232350Z AUTO 31004KT 9999 // NCD 18/14 Q1012

Idő: 02:41 (00:41 UTC)

Előrejelzés

A jelentés 8 órával és 17 perccel ezelõtt készült, 16:24 UTC
Az előrejelzés 23-én 18 óra UTC és 23-én 22 óra UTC között érvényes
Keleti szél 8 kt
Látótávolság 10 km, vagy több
Kevés felhő 2000 lábon
23-én 20 óra UTC és 23-én 22 óra UTC között fokozatosan kialakuló
Látótávolság: 7000 m
Száraz légköri homály

TAF: LXGB 231624Z 2318/2322 10008KT 9999 FEW020 BECMG 2320/2322 7000 HZ

Meteorológiai megfigyelések és előrejelzések több, mint 4000 repülőtéren (METAR és TAF jelentéseket).

A térképen piros és sárga pontok jelzik az elérhető meteorológiai állomásokat.

Mozgassa az egeret a pont fölött, hogy megjelenjen az állomás neve.

Azután kattintson az időjárási megfigyelések és előrejelzések megtekintéséhez.

A térkép megváltoztatása: kattintson a fekete keresztel jelölt zöld gombra ráközelítéshez, a vonallal jelölt zöld gombra távolításhoz, vagy a zöld nyilakra a szomszédos térképek eléréséhez.


METAR-TAF: